createdAt,value
2022-09-05T04:00:26.992Z,1007.85
2022-09-05T04:06:44.198Z,1007.86
2022-09-05T04:07:20.012Z,1007.87
2022-09-05T04:08:10.906Z,1007.83
2022-09-05T04:08:15.118Z,1007.85
2022-09-05T04:08:15.901Z,1007.75
2022-09-05T04:08:17.304Z,1007.84
2022-09-05T04:08:20.870Z,1007.89
2022-09-05T04:08:38.829Z,1007.86
2022-09-05T04:09:49.697Z,1007.80
2022-09-05T04:10:27.977Z,1007.83
2022-09-05T04:11:26.836Z,1007.84
2022-09-05T04:12:26.825Z,1007.79
2022-09-05T04:13:31.853Z,1007.78
2022-09-05T04:14:26.800Z,1007.85
2022-09-05T04:15:26.793Z,1007.81
2022-09-05T04:16:26.875Z,1007.83
2022-09-05T04:17:26.768Z,1007.80
2022-09-05T04:18:32.855Z,1007.93
2022-09-05T04:19:27.745Z,1007.80
2022-09-05T04:20:26.731Z,1007.77
2022-09-05T04:21:26.739Z,1007.79
2022-09-05T04:22:26.712Z,1007.81
2022-09-05T04:23:26.721Z,1007.79
2022-09-05T04:24:31.711Z,1007.80
2022-09-05T04:25:26.684Z,1007.78
2022-09-05T04:26:26.669Z,1007.82
2022-09-05T04:27:27.864Z,1007.83
2022-09-05T04:28:26.645Z,1007.87
2022-09-05T04:29:26.648Z,1007.87
2022-09-05T04:30:37.906Z,1007.84
2022-09-05T04:31:27.632Z,1007.85
2022-09-05T04:32:26.638Z,1007.85
2022-09-05T04:33:36.473Z,1007.85
2022-09-05T04:34:27.593Z,1007.83
2022-09-05T04:35:31.609Z,1007.87
2022-09-05T04:36:26.567Z,1007.87
2022-09-05T04:37:26.546Z,1007.79
2022-09-05T04:38:27.533Z,1007.88
2022-09-05T04:39:26.576Z,1007.88
2022-09-05T04:40:30.909Z,1007.91
2022-09-05T04:41:39.291Z,1007.86
2022-09-05T04:42:27.492Z,1007.91
2022-09-05T04:43:26.480Z,1007.87
2022-09-05T04:44:26.489Z,1007.94
2022-09-05T04:45:26.462Z,1007.87
2022-09-05T04:46:31.510Z,1007.92
2022-09-05T04:47:26.437Z,1007.98
2022-09-05T04:48:26.487Z,1007.98
2022-09-05T04:49:26.424Z,1007.92
2022-09-05T04:50:26.400Z,1007.96
2022-09-05T04:51:27.394Z,1007.99
2022-09-05T04:52:31.654Z,1008.00
2022-09-05T04:53:27.370Z,1007.98
2022-09-05T04:54:29.945Z,1008.04
2022-09-05T04:55:26.346Z,1008.00
2022-09-05T04:56:26.337Z,1008.03
2022-09-05T04:57:31.349Z,1007.97
2022-09-05T04:58:27.494Z,1008.03
2022-09-05T05:02:51.975Z,1008.07
2022-09-05T05:04:23.730Z,1007.99
2022-09-05T05:06:01.123Z,1008.05
2022-09-05T05:06:11.396Z,1008.06
2022-09-05T05:06:13.325Z,1008.03
2022-09-05T05:06:18.131Z,1008.09
2022-09-05T05:06:19.739Z,1008.10
2022-09-05T05:06:43.796Z,1008.03
2022-09-05T05:07:27.389Z,1008.17
2022-09-05T05:08:38.282Z,1008.14
2022-09-05T05:09:27.191Z,1008.16
2022-09-05T05:14:45.830Z,1008.12
2022-09-05T05:17:57.275Z,1008.15
2022-09-05T05:17:57.744Z,1008.15
2022-09-05T05:18:01.653Z,1008.10
2022-09-05T05:18:07.037Z,1008.16
2022-09-05T05:18:12.955Z,1008.18
2022-09-05T05:18:15.970Z,1008.18
2022-09-05T05:18:16.388Z,1008.16
2022-09-05T05:18:38.632Z,1008.23
2022-09-05T05:19:32.186Z,1008.22
2022-09-05T05:20:40.074Z,1008.22
2022-09-05T05:21:27.060Z,1008.20
2022-09-05T05:22:26.050Z,1008.20
2022-09-05T05:23:26.040Z,1008.22
2022-09-05T05:24:26.038Z,1008.25
2022-09-05T05:25:26.030Z,1008.20
2022-09-05T05:26:26.010Z,1008.15
2022-09-05T05:27:26.026Z,1008.17
2022-09-05T05:28:26.226Z,1008.23
2022-09-05T05:29:26.057Z,1008.27
2022-09-05T05:30:30.983Z,1008.25
2022-09-05T05:31:25.965Z,1008.19
2022-09-05T05:32:33.282Z,1008.31
2022-09-05T05:33:26.934Z,1008.26
2022-09-05T05:34:25.927Z,1008.28
2022-09-05T05:35:25.904Z,1008.28
2022-09-05T05:36:25.895Z,1008.24
2022-09-05T05:37:25.883Z,1008.32
2022-09-05T05:38:26.071Z,1008.29
2022-09-05T05:39:25.941Z,1008.33
2022-09-05T05:40:25.851Z,1008.34
2022-09-05T05:41:30.860Z,1008.35
2022-09-05T05:42:25.829Z,1008.38
2022-09-05T05:43:25.817Z,1008.35
2022-09-05T05:44:25.821Z,1008.31
2022-09-05T05:45:25.796Z,1008.32
2022-09-05T05:46:25.875Z,1008.28
2022-09-05T05:47:31.303Z,1008.37
2022-09-05T05:48:26.762Z,1008.41
2022-09-05T05:49:25.767Z,1008.43
2022-09-05T05:50:25.741Z,1008.42
2022-09-05T05:51:39.688Z,1008.46
2022-09-05T05:52:31.739Z,1008.47
2022-09-05T05:53:42.403Z,1008.45
2022-09-05T05:54:26.707Z,1008.46
2022-09-05T05:55:51.374Z,1008.46
2022-09-05T05:56:26.678Z,1008.45
2022-09-05T05:57:25.665Z,1008.47
2022-09-05T05:58:25.792Z,1008.46
2022-09-05T05:59:26.678Z,1008.48
2022-09-05T06:00:28.081Z,1008.49
2022-09-05T06:01:31.596Z,1008.46
2022-09-05T06:02:26.725Z,1008.46
2022-09-05T06:03:30.750Z,1008.47
2022-09-05T06:04:25.598Z,1008.46
2022-09-05T06:05:25.578Z,1008.43
2022-09-05T06:06:25.570Z,1008.47
2022-09-05T06:07:25.554Z,1008.44
2022-09-05T06:11:43.675Z,1008.50
2022-09-05T06:13:03.607Z,1008.49
2022-09-05T06:14:55.646Z,1008.45
2022-09-05T06:14:56.459Z,1008.52
2022-09-05T06:14:59.826Z,1008.46
2022-09-05T06:15:00.162Z,1008.49
2022-09-05T06:15:03.787Z,1008.52
2022-09-05T06:15:27.397Z,1008.48
2022-09-05T06:16:25.512Z,1008.52
2022-09-05T06:17:28.096Z,1008.49
2022-09-05T06:18:25.432Z,1008.46
2022-09-05T06:19:25.425Z,1008.51
2022-09-05T06:22:10.592Z,1008.47
2022-09-05T06:22:10.955Z,1008.47
2022-09-05T06:22:26.391Z,1008.45
2022-09-05T06:23:39.918Z,1008.51
2022-09-05T06:24:26.367Z,1008.54
2022-09-05T06:25:30.384Z,1008.52
2022-09-05T06:26:25.346Z,1008.57
2022-09-05T06:27:25.331Z,1008.58
2022-09-05T06:28:25.319Z,1008.52
2022-09-05T06:29:25.312Z,1008.53
2022-09-05T06:30:26.368Z,1008.57
2022-09-05T06:31:31.085Z,1008.59
2022-09-05T06:32:26.273Z,1008.55
2022-09-05T06:33:25.352Z,1008.59
2022-09-05T06:34:32.654Z,1008.59
2022-09-05T06:35:26.252Z,1008.63
2022-09-05T06:36:30.274Z,1008.62
2022-09-05T06:37:25.227Z,1008.64
2022-09-05T06:38:25.236Z,1008.71
2022-09-05T06:39:25.262Z,1008.73
2022-09-05T06:40:27.186Z,1008.74
2022-09-05T06:41:26.174Z,1008.69
2022-09-05T06:42:33.322Z,1008.70
2022-09-05T06:43:26.466Z,1008.74
2022-09-05T06:44:26.225Z,1008.73
2022-09-05T06:45:28.365Z,1008.63
2022-09-05T06:46:55.261Z,1008.67
2022-09-05T06:47:34.060Z,1008.62
2022-09-05T06:48:38.269Z,1008.57
2022-09-05T06:49:30.515Z,1008.62
2022-09-05T06:50:27.726Z,1008.54
2022-09-05T06:51:25.059Z,1008.66
2022-09-05T06:52:29.473Z,1008.63
2022-09-05T06:53:26.038Z,1008.63
2022-09-05T06:54:25.029Z,1008.66
2022-09-05T06:55:25.040Z,1008.62
2022-09-05T06:56:25.695Z,1008.67
2022-09-05T06:57:25.009Z,1008.65
2022-09-05T06:58:30.006Z,1008.70
2022-09-05T06:59:24.974Z,1008.64
2022-09-05T07:00:25.047Z,1008.66
2022-09-05T07:01:25.088Z,1008.64
2022-09-05T07:02:58.497Z,1008.70
2022-09-05T07:03:26.539Z,1008.72
2022-09-05T07:05:23.328Z,1008.73
2022-09-05T07:05:40.105Z,1008.74
2022-09-05T07:06:48.068Z,1008.71
2022-09-05T07:07:27.560Z,1008.80
2022-09-05T07:08:33.396Z,1008.85
2022-09-05T07:09:30.886Z,1008.78
2022-09-05T07:10:39.782Z,1008.83
2022-09-05T07:11:25.840Z,1008.88
2022-09-05T07:12:24.827Z,1008.92
2022-09-05T07:13:26.041Z,1008.87
2022-09-05T07:14:24.823Z,1008.84
2022-09-05T07:15:24.805Z,1008.84
2022-09-05T07:16:31.496Z,1008.83
2022-09-05T07:17:25.771Z,1008.86
2022-09-05T07:18:24.760Z,1008.86
2022-09-05T07:19:24.750Z,1008.85
2022-09-05T07:20:29.780Z,1008.84
2022-09-05T07:21:26.387Z,1008.78
2022-09-05T07:22:47.039Z,1008.83
2022-09-05T07:24:06.312Z,1008.89
2022-09-05T07:24:53.208Z,1008.87
2022-09-05T07:25:26.452Z,1008.90
2022-09-05T07:26:35.064Z,1008.86
2022-09-05T07:27:25.669Z,1008.92
2022-09-05T07:28:29.186Z,1008.89
2022-09-05T07:29:27.989Z,1008.93
2022-09-05T07:30:24.628Z,1008.91
2022-09-05T07:31:37.476Z,1008.92
2022-09-05T07:32:25.690Z,1008.83
2022-09-05T07:33:24.699Z,1008.92
2022-09-05T07:34:24.586Z,1008.90
2022-09-05T07:35:24.570Z,1008.91
2022-09-05T07:36:24.585Z,1008.95
2022-09-05T07:37:24.549Z,1008.93
2022-09-05T07:38:26.794Z,1008.91
2022-09-05T07:39:29.233Z,1008.86
2022-09-05T07:40:27.345Z,1008.85
2022-09-05T07:41:24.517Z,1008.91
2022-09-05T07:42:29.516Z,1008.97
2022-09-05T07:43:24.574Z,1008.95
2022-09-05T07:44:24.471Z,1009.02
2022-09-05T07:45:24.518Z,1009.03
2022-09-05T07:46:24.461Z,1009.08
2022-09-05T07:47:24.437Z,1008.99
2022-09-05T07:48:34.462Z,1008.92
2022-09-05T07:49:25.416Z,1008.94
2022-09-05T07:51:31.892Z,1009.02
2022-09-05T07:55:43.497Z,1009.03
2022-09-05T07:56:54.104Z,1008.96
2022-09-05T07:56:59.809Z,1008.97
2022-09-05T07:57:00.911Z,1009.00
2022-09-05T07:57:02.494Z,1008.96
2022-09-05T07:57:10.066Z,1009.00
2022-09-05T07:57:31.197Z,1009.01
2022-09-05T07:58:25.323Z,1008.88
2022-09-05T07:59:24.318Z,1008.91
2022-09-05T08:00:27.041Z,1008.90
2022-09-05T08:01:25.353Z,1008.91
2022-09-05T08:02:24.272Z,1008.91
2022-09-05T08:03:24.393Z,1008.87
2022-09-05T08:04:29.291Z,1008.90
2022-09-05T08:05:34.326Z,1008.89
2022-09-05T08:07:01.253Z,1008.85
2022-09-05T08:07:48.158Z,1008.88
2022-09-05T08:08:25.559Z,1008.92
2022-09-05T08:10:09.143Z,1008.92
2022-09-05T08:10:31.175Z,1008.95
2022-09-05T08:11:26.406Z,1008.91
2022-09-05T08:12:28.048Z,1008.99
2022-09-05T08:13:27.435Z,1008.94
2022-09-05T08:14:45.280Z,1008.94
2022-09-05T08:16:02.744Z,1008.98
2022-09-05T08:16:25.189Z,1008.95
2022-09-05T08:17:29.951Z,1008.93
2022-09-05T08:18:25.099Z,1008.85
2022-09-05T08:19:24.087Z,1008.93
2022-09-05T08:20:24.076Z,1008.82
2022-09-05T08:21:27.103Z,1008.98
2022-09-05T08:22:24.053Z,1008.97
2022-09-05T08:23:24.167Z,1008.92
2022-09-05T08:24:24.031Z,1008.90
2022-09-05T08:25:24.031Z,1008.91
2022-09-05T08:26:29.031Z,1008.89
2022-09-05T08:27:23.995Z,1008.90
2022-09-05T08:28:24.079Z,1008.86
2022-09-05T08:29:23.976Z,1008.86
2022-09-05T08:30:26.183Z,1008.82
2022-09-05T08:31:24.027Z,1008.89
2022-09-05T08:32:23.944Z,1008.84
2022-09-05T08:33:23.930Z,1008.89
2022-09-05T08:34:44.301Z,1008.91
2022-09-05T08:35:24.920Z,1008.86
2022-09-05T08:36:23.898Z,1008.90
2022-09-05T08:37:28.910Z,1008.86
2022-09-05T08:38:24.048Z,1008.88
2022-09-05T08:39:23.939Z,1008.84
2022-09-05T08:40:23.893Z,1008.89
2022-09-05T08:41:33.334Z,1008.90
2022-09-05T08:42:24.832Z,1008.92
2022-09-05T08:43:44.396Z,1008.90
2022-09-05T08:46:39.202Z,1008.89
2022-09-05T08:46:39.916Z,1008.86
2022-09-05T08:46:47.305Z,1008.87
2022-09-05T08:47:24.869Z,1008.82
2022-09-05T08:48:28.788Z,1008.74
2022-09-05T08:49:37.046Z,1008.80
2022-09-05T08:50:26.750Z,1008.80
2022-09-05T08:51:23.742Z,1008.80
2022-09-05T08:52:23.722Z,1008.77
2022-09-05T08:53:45.215Z,1008.77
2022-09-05T08:54:24.702Z,1008.76
2022-09-05T08:55:23.689Z,1008.81
2022-09-05T08:56:23.689Z,1008.77
2022-09-05T08:57:23.671Z,1008.76
2022-09-05T08:58:23.657Z,1008.74
2022-09-05T08:59:32.869Z,1008.74
2022-09-05T09:00:24.881Z,1008.74
2022-09-05T09:01:23.674Z,1008.79
2022-09-05T09:02:48.148Z,1008.82
2022-09-05T09:03:26.030Z,1008.84
2022-09-05T09:04:41.682Z,1008.79
2022-09-05T09:05:24.577Z,1008.75
2022-09-05T09:06:26.828Z,1008.77
2022-09-05T09:07:36.776Z,1008.83
2022-09-05T09:08:24.545Z,1008.80
2022-09-05T09:09:23.534Z,1008.81
2022-09-05T09:10:28.553Z,1008.82
2022-09-05T09:11:23.541Z,1008.83
2022-09-05T09:12:23.501Z,1008.87
2022-09-05T09:13:23.537Z,1008.83
2022-09-05T09:14:30.888Z,1008.81
2022-09-05T09:15:24.469Z,1008.82
2022-09-05T09:16:23.529Z,1008.79
2022-09-05T09:17:23.447Z,1008.88
2022-09-05T09:18:23.437Z,1008.90
2022-09-05T09:19:29.261Z,1008.88
2022-09-05T09:20:24.437Z,1008.88
2022-09-05T09:21:28.426Z,1008.84
2022-09-05T09:22:23.391Z,1008.90
2022-09-05T09:23:32.402Z,1008.85
2022-09-05T09:24:24.367Z,1008.92
2022-09-05T09:25:26.412Z,1008.77
2022-09-05T09:26:24.585Z,1008.78
2022-09-05T09:27:27.276Z,1008.76
2022-09-05T09:28:50.297Z,1008.81
2022-09-05T09:29:24.315Z,1008.78
2022-09-05T09:30:23.314Z,1008.77
2022-09-05T09:31:23.361Z,1008.78
2022-09-05T09:32:28.304Z,1008.81
2022-09-05T09:33:27.191Z,1008.80
2022-09-05T09:34:23.260Z,1008.77
2022-09-05T09:35:23.270Z,1008.83
2022-09-05T09:36:23.236Z,1008.87
2022-09-05T09:37:27.598Z,1008.89
2022-09-05T09:38:24.387Z,1008.87
2022-09-05T09:39:38.802Z,1008.84
2022-09-05T09:40:24.349Z,1008.71
2022-09-05T09:41:23.199Z,1008.75
2022-09-05T09:42:33.487Z,1008.70
2022-09-05T09:43:29.189Z,1008.68
2022-09-05T09:44:23.153Z,1008.72
2022-09-05T09:45:28.627Z,1008.71
2022-09-05T09:46:24.230Z,1008.71
2022-09-05T09:47:23.118Z,1008.67
2022-09-05T09:48:23.142Z,1008.65
2022-09-05T09:49:23.772Z,1008.60
2022-09-05T09:50:23.096Z,1008.60
2022-09-05T09:51:23.086Z,1008.57
2022-09-05T09:52:23.063Z,1008.55
2022-09-05T09:53:23.055Z,1008.57
2022-09-05T09:54:28.076Z,1008.64
2022-09-05T09:55:23.036Z,1008.58
2022-09-05T09:56:23.030Z,1008.56
2022-09-05T09:57:23.011Z,1008.53
2022-09-05T09:58:23.089Z,1008.60
2022-09-05T09:59:22.991Z,1008.62
2022-09-05T10:00:22.985Z,1008.58
2022-09-05T10:01:36.209Z,1008.54
2022-09-05T10:05:41.485Z,1008.60
2022-09-05T10:08:21.327Z,1008.60
2022-09-05T10:08:51.101Z,1008.55
2022-09-05T10:10:35.506Z,1008.56
2022-09-05T10:10:44.179Z,1008.53
2022-09-05T10:10:48.645Z,1008.60
2022-09-05T10:10:52.852Z,1008.53
2022-09-05T10:10:53.206Z,1008.53
2022-09-05T10:11:08.801Z,1008.53
2022-09-05T10:11:52.063Z,1008.49
2022-09-05T10:12:23.936Z,1008.46
2022-09-05T10:13:23.174Z,1008.46
2022-09-05T10:14:45.140Z,1008.53
2022-09-05T10:15:31.467Z,1008.45
2022-09-05T10:16:28.894Z,1008.44
2022-09-05T10:17:22.794Z,1008.44
2022-09-05T10:18:24.135Z,1008.50
2022-09-05T10:20:08.002Z,1008.40
2022-09-05T10:20:28.707Z,1008.29
2022-09-05T10:21:23.770Z,1008.33
2022-09-05T10:22:38.262Z,1008.32
2022-09-05T10:23:23.787Z,1008.41
2022-09-05T10:24:22.717Z,1008.47
2022-09-05T10:25:22.710Z,1008.44
2022-09-05T10:26:22.707Z,1008.52
2022-09-05T10:27:27.738Z,1008.42
2022-09-05T10:28:22.674Z,1008.44
2022-09-05T10:29:36.831Z,1008.46
2022-09-05T10:30:41.852Z,1008.45
2022-09-05T10:33:13.998Z,1008.42
2022-09-05T10:35:05.941Z,1008.38
2022-09-05T10:35:17.611Z,1008.38
2022-09-05T10:35:17.844Z,1008.39
2022-09-05T10:35:24.311Z,1008.31
2022-09-05T10:36:22.643Z,1008.36
2022-09-05T10:37:22.578Z,1008.29
2022-09-05T10:38:27.587Z,1008.23
2022-09-05T10:39:22.650Z,1008.16
2022-09-05T10:40:22.546Z,1008.15
2022-09-05T10:41:23.137Z,1008.10
2022-09-05T10:42:22.522Z,1008.14
2022-09-05T10:43:22.517Z,1008.14
2022-09-05T10:44:22.506Z,1008.09
2022-09-05T10:45:37.935Z,1008.13
2022-09-05T10:46:47.027Z,1008.08
2022-09-05T10:47:23.549Z,1008.06
2022-09-05T10:48:22.461Z,1008.08
2022-09-05T10:49:30.376Z,1008.03
2022-09-05T10:50:22.436Z,1008.02
2022-09-05T10:51:27.064Z,1008.02
2022-09-05T10:52:23.413Z,1008.01
2022-09-05T10:53:22.469Z,1008.06
2022-09-05T10:54:22.392Z,1007.96
2022-09-05T10:55:22.386Z,1008.19
2022-09-05T10:56:22.383Z,1008.28
2022-09-05T10:57:22.361Z,1008.10
2022-09-05T10:58:46.271Z,1007.98
2022-09-05T11:02:16.594Z,1007.98
2022-09-05T11:02:21.648Z,1007.93
2022-09-05T11:02:28.496Z,1007.98
2022-09-05T11:02:34.841Z,1007.94
2022-09-05T11:03:23.479Z,1007.92
2022-09-05T11:04:22.376Z,1007.95
2022-09-05T11:05:22.314Z,1007.88
2022-09-05T11:06:24.589Z,1007.87
2022-09-05T11:07:27.899Z,1007.88
2022-09-05T11:08:23.237Z,1007.83
2022-09-05T11:09:22.230Z,1007.84
2022-09-05T11:10:22.219Z,1007.87
2022-09-05T11:11:34.085Z,1007.80
2022-09-05T11:12:23.196Z,1007.82
2022-09-05T11:13:22.257Z,1007.83
2022-09-05T11:14:27.122Z,1007.75
2022-09-05T11:15:23.164Z,1007.76
2022-09-05T11:16:22.207Z,1007.75
2022-09-05T11:17:22.154Z,1007.78
2022-09-05T11:18:22.135Z,1007.76
2022-09-05T11:19:23.119Z,1007.66
2022-09-05T11:20:34.451Z,1007.71
2022-09-05T11:21:23.100Z,1007.71
2022-09-05T11:22:27.124Z,1007.73
2022-09-05T11:23:22.144Z,1007.68
2022-09-05T11:24:26.681Z,1007.69
2022-09-05T11:25:36.304Z,1007.59
2022-09-05T11:26:23.041Z,1007.58
2022-09-05T11:27:24.316Z,1007.61
2022-09-05T11:28:22.019Z,1007.59
2022-09-05T11:29:22.012Z,1007.63
2022-09-05T11:30:30.424Z,1007.61
2022-09-05T11:31:23.084Z,1007.69
2022-09-05T11:39:23.976Z,1007.63
2022-09-05T11:39:52.066Z,1007.71
2022-09-05T11:39:54.160Z,1007.57
2022-09-05T11:39:55.339Z,1007.75
2022-09-05T11:39:57.847Z,1007.70
2022-09-05T11:40:03.624Z,1007.87
2022-09-05T11:40:08.285Z,1007.74
2022-09-05T11:40:10.854Z,1007.74
2022-09-05T11:40:35.202Z,1007.66
2022-09-05T11:41:23.785Z,1007.58
2022-09-05T11:42:21.880Z,1007.55
2022-09-05T11:43:21.859Z,1007.63
2022-09-05T11:44:27.477Z,1007.66
2022-09-05T11:45:21.837Z,1007.59
2022-09-05T11:46:21.901Z,1007.62
2022-09-05T11:47:29.729Z,1007.67
2022-09-05T11:48:22.803Z,1007.58
2022-09-05T11:49:21.793Z,1007.56
2022-09-05T11:50:21.780Z,1007.58
2022-09-05T11:51:26.041Z,1007.55
2022-09-05T11:52:22.771Z,1007.63
2022-09-05T11:53:21.751Z,1007.63
2022-09-05T11:54:21.737Z,1007.57
2022-09-05T11:55:26.752Z,1007.65
2022-09-05T11:56:25.452Z,1007.64
2022-09-05T11:57:33.449Z,1007.61
2022-09-05T11:58:45.228Z,1007.55
2022-09-05T11:59:33.652Z,1007.57
2022-09-05T12:00:31.383Z,1007.56
2022-09-05T12:01:42.067Z,1007.61
2022-09-05T12:02:23.245Z,1007.52
2022-09-05T12:03:58.194Z,1007.50
2022-09-05T12:04:22.629Z,1007.51
2022-09-05T12:05:50.306Z,1007.53
2022-09-05T12:06:27.690Z,1007.50
2022-09-05T12:07:30.403Z,1007.62
2022-09-05T12:08:22.601Z,1007.53
2022-09-05T12:09:23.826Z,1007.49
2022-09-05T12:10:46.967Z,1007.54
2022-09-05T12:11:22.561Z,1007.39
2022-09-05T12:12:38.939Z,1007.41
2022-09-05T12:13:26.398Z,1007.51
2022-09-05T12:14:25.576Z,1007.48
2022-09-05T12:15:21.539Z,1007.59
2022-09-05T12:16:26.592Z,1007.53
2022-09-05T12:17:34.975Z,1007.60
2022-09-05T12:18:24.386Z,1007.57
2022-09-05T12:19:22.927Z,1007.54
2022-09-05T12:20:22.124Z,1007.54
2022-09-05T12:21:21.452Z,1007.63
2022-09-05T12:22:23.631Z,1007.55
2022-09-05T12:23:51.445Z,1007.59
2022-09-05T12:25:26.319Z,1007.53
2022-09-05T12:25:26.619Z,1007.55
2022-09-05T12:27:36.637Z,1007.46
2022-09-05T12:27:40.162Z,1007.56
2022-09-05T12:29:28.005Z,1007.49
2022-09-05T12:29:32.904Z,1007.51
2022-09-05T12:30:30.076Z,1007.48
2022-09-05T12:32:50.281Z,1007.41
2022-09-05T12:33:56.668Z,1007.46
2022-09-05T12:36:02.626Z,1007.38
2022-09-05T12:36:04.363Z,1007.45
2022-09-05T12:36:12.598Z,1007.38
2022-09-05T12:40:45.089Z,1007.38
2022-09-05T12:40:46.172Z,1007.40
2022-09-05T12:41:01.054Z,1007.33
2022-09-05T12:41:14.918Z,1007.34
2022-09-05T12:41:39.082Z,1007.29
2022-09-05T12:41:45.083Z,1007.31
2022-09-05T12:42:28.188Z,1007.32
2022-09-05T12:44:39.009Z,1007.30
2022-09-05T12:44:41.722Z,1007.31
2022-09-05T12:45:24.828Z,1007.28
2022-09-05T12:46:24.033Z,1007.24
2022-09-05T12:47:21.316Z,1007.25
2022-09-05T12:48:21.189Z,1007.27
2022-09-05T12:49:21.163Z,1007.23
2022-09-05T12:50:21.153Z,1007.27
2022-09-05T12:51:46.795Z,1007.34
2022-09-05T12:52:22.134Z,1007.32
2022-09-05T12:53:21.137Z,1007.23
2022-09-05T12:54:33.393Z,1007.15
2022-09-05T12:55:22.108Z,1007.09
2022-09-05T12:58:47.198Z,1007.02
2022-09-05T13:02:09.302Z,1007.00
2022-09-05T13:02:59.166Z,1006.96
2022-09-05T13:03:04.681Z,1006.99
2022-09-05T13:03:06.943Z,1006.98
2022-09-05T13:03:09.169Z,1007.03
2022-09-05T13:03:13.990Z,1007.04
2022-09-05T13:03:27.858Z,1006.98
2022-09-05T13:04:26.819Z,1006.96
2022-09-05T13:05:27.161Z,1007.01
2022-09-05T13:06:25.553Z,1007.01
2022-09-05T13:07:21.981Z,1006.96
2022-09-05T13:08:20.980Z,1007.00
2022-09-05T13:09:20.961Z,1006.94
2022-09-05T13:14:49.038Z,1006.96
2022-09-05T13:14:49.744Z,1006.95
2022-09-05T13:14:54.745Z,1007.02
2022-09-05T13:14:58.996Z,1006.91
2022-09-05T13:15:02.798Z,1006.94
2022-09-05T13:15:23.921Z,1006.99
2022-09-05T13:16:25.982Z,1006.94
2022-09-05T13:17:20.907Z,1006.93
2022-09-05T13:18:21.013Z,1006.92
2022-09-05T13:19:20.857Z,1006.85
2022-09-05T13:20:21.270Z,1006.89
2022-09-05T13:21:22.997Z,1006.92
2022-09-05T13:22:20.823Z,1006.88
2022-09-05T13:23:20.960Z,1006.84
2022-09-05T13:24:20.801Z,1006.82
2022-09-05T13:25:20.802Z,1006.87
2022-09-05T13:26:20.785Z,1006.79
2022-09-05T13:27:20.773Z,1006.84
2022-09-05T13:28:20.777Z,1006.75
2022-09-05T13:29:25.770Z,1006.83
2022-09-05T13:34:04.464Z,1006.81
2022-09-05T13:35:31.652Z,1006.74
2022-09-05T13:38:05.050Z,1006.75
2022-09-05T13:38:05.341Z,1006.75
2022-09-05T13:38:05.626Z,1006.80
2022-09-05T13:38:13.186Z,1006.71
2022-09-05T13:38:16.018Z,1006.75
2022-09-05T13:38:17.353Z,1006.80
2022-09-05T13:38:47.486Z,1006.72
2022-09-05T13:39:21.847Z,1006.81
2022-09-05T13:40:20.735Z,1006.76
2022-09-05T13:41:26.950Z,1006.76
2022-09-05T13:42:26.632Z,1006.73
2022-09-05T13:43:20.631Z,1006.74
2022-09-05T13:44:25.352Z,1006.72
2022-09-05T13:45:21.575Z,1006.69
2022-09-05T13:46:20.591Z,1006.69
2022-09-05T13:47:30.271Z,1006.65
2022-09-05T13:48:21.605Z,1006.64
2022-09-05T13:49:26.877Z,1006.67
2022-09-05T13:50:21.522Z,1006.70
2022-09-05T13:51:20.515Z,1006.63
2022-09-05T13:52:20.534Z,1006.65
2022-09-05T13:53:20.511Z,1006.62
2022-09-05T13:54:20.482Z,1006.66
2022-09-05T13:55:25.520Z,1006.65
2022-09-05T13:56:20.484Z,1006.71
2022-09-05T13:57:32.540Z,1006.67
2022-09-05T13:58:21.552Z,1006.67
2022-09-05T13:59:20.425Z,1006.65
2022-09-05T14:00:27.362Z,1006.68
2022-09-05T14:01:21.470Z,1006.59
2022-09-05T14:02:26.919Z,1006.61
2022-09-05T14:03:30.791Z,1006.62
2022-09-05T14:05:21.603Z,1006.60
2022-09-05T14:06:45.270Z,1006.57
2022-09-05T14:07:50.962Z,1006.56
2022-09-05T14:08:26.371Z,1006.57
2022-09-05T14:09:37.859Z,1006.54
2022-09-05T14:10:21.326Z,1006.56
2022-09-05T14:11:20.295Z,1006.54
2022-09-05T14:12:20.287Z,1006.54
2022-09-05T14:13:20.323Z,1006.47
2022-09-05T14:15:08.374Z,1006.49
2022-09-05T14:15:25.082Z,1006.48
2022-09-05T14:16:20.278Z,1006.43
2022-09-05T14:18:22.241Z,1006.42
2022-09-05T14:19:25.232Z,1006.46
2022-09-05T14:20:20.203Z,1006.43
2022-09-05T14:21:20.189Z,1006.44
2022-09-05T14:22:22.310Z,1006.40
2022-09-05T14:23:20.198Z,1006.41
2022-09-05T14:24:27.527Z,1006.42
2022-09-05T14:25:21.144Z,1006.40
2022-09-05T14:26:20.138Z,1006.41
2022-09-05T14:27:32.303Z,1006.38
2022-09-05T14:28:21.131Z,1006.33
2022-09-05T14:29:20.101Z,1006.38
2022-09-05T14:31:51.857Z,1006.37
2022-09-05T14:35:27.736Z,1006.34
2022-09-05T14:37:40.123Z,1006.27
2022-09-05T14:37:40.361Z,1006.33
2022-09-05T14:37:40.436Z,1006.32
2022-09-05T14:37:53.651Z,1006.31
2022-09-05T14:37:59.974Z,1006.26
2022-09-05T14:38:01.184Z,1006.26
2022-09-05T14:38:21.452Z,1006.25
2022-09-05T14:39:20.091Z,1006.22
2022-09-05T14:40:29.526Z,1006.30
2022-09-05T14:41:25.994Z,1006.25
2022-09-05T14:42:19.971Z,1006.23
2022-09-05T14:43:27.042Z,1006.24
2022-09-05T14:44:20.952Z,1006.24
2022-09-05T14:45:19.932Z,1006.19
2022-09-05T14:46:19.980Z,1006.19
2022-09-05T14:47:32.336Z,1006.26
2022-09-05T14:48:20.898Z,1006.20
2022-09-05T14:49:19.899Z,1006.19
2022-09-05T14:50:21.187Z,1006.15
2022-09-05T14:51:25.435Z,1006.26
2022-09-05T14:52:25.883Z,1006.21
2022-09-05T14:55:21.260Z,1006.19
2022-09-05T14:57:16.494Z,1006.12
2022-09-05T15:02:41.567Z,1006.13
2022-09-05T15:02:43.094Z,1006.14
2022-09-05T15:02:43.340Z,1006.16
2022-09-05T15:02:49.555Z,1006.16
2022-09-05T15:02:52.077Z,1006.10
2022-09-05T15:02:53.203Z,1006.12
2022-09-05T15:03:26.489Z,1006.15
2022-09-05T15:04:37.498Z,1006.12
2022-09-05T15:05:20.711Z,1006.12
2022-09-05T15:06:19.705Z,1006.11
2022-09-05T15:07:19.690Z,1006.13
2022-09-05T15:11:23.861Z,1006.07
2022-09-05T15:12:17.315Z,1006.13
2022-09-05T15:12:17.669Z,1006.08
2022-09-05T15:12:18.559Z,1006.05
2022-09-05T15:12:31.191Z,1006.03
2022-09-05T15:13:20.626Z,1006.03
2022-09-05T15:14:25.651Z,1006.07
2022-09-05T15:15:19.605Z,1005.99
2022-09-05T15:16:19.621Z,1005.99
2022-09-05T15:17:19.587Z,1005.97
2022-09-05T15:18:19.573Z,1005.99
2022-09-05T15:19:19.561Z,1005.88
2022-09-05T15:20:19.566Z,1005.88
2022-09-05T15:21:33.217Z,1005.90
2022-09-05T15:22:20.530Z,1005.87
2022-09-05T15:23:19.517Z,1005.85
2022-09-05T15:24:21.225Z,1005.81
2022-09-05T15:25:24.529Z,1005.85
2022-09-05T15:26:25.604Z,1005.82
2022-09-05T15:27:20.478Z,1005.81
2022-09-05T15:28:19.602Z,1005.83
2022-09-05T15:29:19.452Z,1005.79
2022-09-05T15:30:19.454Z,1005.81
2022-09-05T15:31:19.593Z,1005.78
2022-09-05T15:32:19.422Z,1005.79
2022-09-05T15:33:19.410Z,1005.75
2022-09-05T15:34:20.399Z,1005.71
2022-09-05T15:35:19.401Z,1005.76
2022-09-05T15:36:24.410Z,1005.74
2022-09-05T15:37:22.015Z,1005.73
2022-09-05T15:38:19.357Z,1005.73
2022-09-05T15:39:19.344Z,1005.62
2022-09-05T15:40:22.372Z,1005.67
2022-09-05T15:41:19.322Z,1005.60
2022-09-05T15:42:19.313Z,1005.64
2022-09-05T15:43:19.300Z,1005.59
2022-09-05T15:44:19.292Z,1005.63
2022-09-05T15:45:19.291Z,1005.63
2022-09-05T15:46:19.345Z,1005.58
2022-09-05T15:47:24.281Z,1005.59
2022-09-05T15:48:19.251Z,1005.56
2022-09-05T15:49:19.251Z,1005.57
2022-09-05T15:50:22.553Z,1005.50
2022-09-05T15:51:19.249Z,1005.47
2022-09-05T15:52:19.207Z,1005.45
2022-09-05T15:53:19.194Z,1005.47
2022-09-05T15:54:37.406Z,1005.58
2022-09-05T15:55:20.182Z,1005.56
2022-09-05T15:56:19.164Z,1005.43
2022-09-05T15:57:19.150Z,1005.45
2022-09-05T15:58:24.232Z,1005.51
2022-09-05T15:59:19.129Z,1005.41
2022-09-05T16:00:19.129Z,1005.44
2022-09-05T16:01:30.559Z,1005.42
2022-09-05T16:02:20.267Z,1005.44
2022-09-05T16:04:53.286Z,1005.47
2022-09-05T16:10:01.463Z,1005.45
2022-09-05T16:10:27.712Z,1005.51
2022-09-05T16:10:34.789Z,1005.45
2022-09-05T16:10:36.985Z,1005.48
2022-09-05T16:10:37.062Z,1005.38
2022-09-05T16:10:38.139Z,1005.40